createdAt,value
2023-02-17T00:00:14.218Z,3.53
2023-02-17T00:02:40.974Z,3.20
2023-02-17T00:05:07.969Z,3.22
2023-02-17T00:07:34.934Z,3.47
2023-02-17T00:10:01.702Z,3.28
2023-02-17T00:12:28.444Z,3.55
2023-02-17T00:14:55.178Z,3.42
2023-02-17T00:17:21.902Z,3.20
2023-02-17T00:19:48.924Z,4.43
2023-02-17T00:22:15.652Z,3.60
2023-02-17T00:24:42.454Z,4.03
2023-02-17T00:27:10.219Z,3.17
2023-02-17T00:29:36.972Z,3.20
2023-02-17T00:32:04.139Z,2.92
2023-02-17T00:34:31.217Z,3.72
2023-02-17T00:36:57.923Z,3.70
2023-02-17T00:39:24.679Z,3.38
2023-02-17T00:41:51.395Z,3.08
2023-02-17T00:44:19.862Z,3.10
2023-02-17T00:46:47.055Z,3.25
2023-02-17T00:49:19.049Z,3.42
2023-02-17T00:51:46.002Z,3.40
2023-02-17T00:54:13.461Z,3.20
2023-02-17T00:56:40.425Z,2.95
2023-02-17T00:59:07.713Z,3.05
2023-02-17T01:01:34.823Z,3.33
2023-02-17T01:04:01.668Z,2.70
2023-02-17T01:06:30.977Z,4.22
2023-02-17T01:08:57.798Z,2.80
2023-02-17T01:11:26.827Z,3.15
2023-02-17T01:13:54.135Z,3.17
2023-02-17T01:16:39.785Z,2.88
2023-02-17T01:19:09.544Z,2.95
2023-02-17T01:21:36.329Z,2.85
2023-02-17T01:24:04.816Z,2.63
2023-02-17T01:26:32.781Z,2.63
2023-02-17T01:28:59.680Z,3.13
2023-02-17T01:31:29.779Z,2.28
2023-02-17T01:33:58.193Z,2.78
2023-02-17T01:36:25.001Z,2.50
2023-02-17T01:38:51.784Z,2.80
2023-02-17T01:41:20.090Z,2.67
2023-02-17T01:44:12.483Z,2.72
2023-02-17T01:46:40.501Z,2.70
2023-02-17T01:49:29.913Z,2.83
2023-02-17T01:52:05.194Z,3.13
2023-02-17T01:54:40.401Z,2.55
2023-02-17T01:57:07.171Z,2.63
2023-02-17T01:59:34.012Z,2.45
2023-02-17T02:02:02.764Z,2.75
2023-02-17T02:04:31.752Z,3.20
2023-02-17T02:06:58.502Z,2.88
2023-02-17T02:09:35.696Z,2.78
2023-02-17T02:12:26.957Z,2.75
2023-02-17T02:14:54.830Z,2.70
2023-02-17T02:18:00.302Z,2.47
2023-02-17T02:20:33.119Z,2.78
2023-02-17T02:23:30.590Z,2.67
2023-02-17T02:26:38.610Z,2.83
2023-02-17T02:29:26.086Z,2.58
2023-02-17T02:32:26.650Z,3.10
2023-02-17T02:35:01.513Z,2.88
2023-02-17T02:37:35.609Z,2.70
2023-02-17T02:40:04.836Z,3.08
2023-02-17T02:42:31.563Z,2.83
2023-02-17T02:44:58.485Z,2.65
2023-02-17T02:47:40.388Z,3.03
2023-02-17T02:50:07.617Z,2.22
2023-02-17T02:52:53.006Z,2.65
2023-02-17T02:55:39.962Z,2.72
2023-02-17T02:58:26.248Z,3.20
2023-02-17T03:00:56.072Z,3.00
2023-02-17T03:03:35.309Z,3.28
2023-02-17T03:06:05.413Z,2.85
2023-02-17T03:08:51.941Z,2.90
2023-02-17T03:11:32.479Z,2.53
2023-02-17T03:14:02.571Z,2.75
2023-02-17T03:16:29.916Z,3.55
2023-02-17T03:18:56.686Z,3.03
2023-02-17T03:21:23.470Z,2.95
2023-02-17T03:23:50.231Z,2.95
2023-02-17T03:26:17.020Z,2.58
2023-02-17T03:28:43.783Z,3.17
2023-02-17T03:31:10.639Z,2.95
2023-02-17T03:33:37.410Z,2.88
2023-02-17T03:36:04.647Z,2.58
2023-02-17T03:38:31.530Z,3.03
2023-02-17T03:40:58.324Z,3.20
2023-02-17T03:43:25.046Z,2.70
2023-02-17T03:45:51.832Z,2.80
2023-02-17T03:48:18.566Z,2.90
2023-02-17T03:50:45.316Z,2.15
2023-02-17T03:53:12.298Z,2.92
2023-02-17T03:55:39.066Z,2.50
2023-02-17T03:58:05.816Z,3.10
2023-02-17T04:00:32.657Z,2.70
2023-02-17T04:02:59.422Z,3.45
2023-02-17T04:05:26.232Z,3.30
2023-02-17T04:07:52.976Z,2.30
2023-02-17T04:10:19.869Z,2.45
2023-02-17T04:12:46.671Z,2.63
2023-02-17T04:15:13.452Z,3.08
2023-02-17T04:17:40.224Z,3.00
2023-02-17T04:20:07.726Z,3.15
2023-02-17T04:22:34.532Z,2.78
2023-02-17T04:25:01.361Z,2.95
2023-02-17T04:27:28.101Z,3.20
2023-02-17T04:29:54.891Z,2.65
2023-02-17T04:32:21.638Z,3.10
2023-02-17T04:34:48.401Z,3.30
2023-02-17T04:37:15.148Z,2.95
2023-02-17T04:39:41.928Z,3.20
2023-02-17T04:42:08.686Z,3.10
2023-02-17T04:44:35.487Z,4.07
2023-02-17T04:47:02.242Z,3.13
2023-02-17T04:49:29.026Z,2.88
2023-02-17T04:51:56.072Z,2.72
2023-02-17T04:54:23.012Z,2.85
2023-02-17T04:56:49.787Z,2.90
2023-02-17T04:59:16.549Z,4.05
2023-02-17T05:01:43.340Z,3.42
2023-02-17T05:04:10.104Z,4.30
2023-02-17T05:06:36.905Z,7.43
2023-02-17T05:09:03.744Z,3.78
2023-02-17T05:11:31.718Z,3.10
2023-02-17T05:13:58.699Z,4.38
2023-02-17T05:16:25.785Z,3.47
2023-02-17T05:18:52.570Z,3.00
2023-02-17T05:21:19.794Z,2.92
2023-02-17T05:23:46.547Z,2.90
2023-02-17T05:26:13.352Z,3.40
2023-02-17T05:28:40.098Z,4.50
2023-02-17T05:31:07.350Z,3.50
2023-02-17T05:33:34.180Z,4.53
2023-02-17T05:36:06.113Z,4.13
2023-02-17T05:38:33.330Z,4.00
2023-02-17T05:41:00.140Z,3.63
2023-02-17T05:43:26.899Z,3.42
2023-02-17T05:45:53.797Z,3.33
2023-02-17T05:48:20.802Z,2.67
2023-02-17T05:50:48.256Z,3.17
2023-02-17T05:53:15.036Z,3.40
2023-02-17T05:55:41.938Z,3.22
2023-02-17T05:58:08.867Z,2.58
2023-02-17T06:00:35.664Z,2.97
2023-02-17T06:03:03.577Z,2.80
2023-02-17T06:05:30.334Z,2.83
2023-02-17T06:07:57.186Z,3.10
2023-02-17T06:10:23.918Z,2.95
2023-02-17T06:12:50.687Z,2.78
2023-02-17T06:15:17.498Z,2.80
2023-02-17T06:17:44.325Z,2.78
2023-02-17T06:20:11.473Z,2.90
2023-02-17T06:22:38.286Z,3.10
2023-02-17T06:25:05.364Z,2.72
2023-02-17T06:27:32.087Z,3.78
2023-02-17T06:29:59.253Z,2.90
2023-02-17T06:32:27.835Z,2.65
2023-02-17T06:34:54.651Z,2.75
2023-02-17T06:37:21.473Z,2.90
2023-02-17T06:39:48.306Z,3.22
2023-02-17T06:42:15.202Z,2.50
2023-02-17T06:44:42.067Z,2.15
2023-02-17T06:47:08.852Z,3.22
2023-02-17T06:49:35.694Z,2.88
2023-02-17T06:52:02.436Z,3.08
2023-02-17T06:54:29.353Z,2.90
2023-02-17T06:56:56.096Z,2.53
2023-02-17T06:59:22.892Z,2.50
2023-02-17T07:01:50.647Z,3.03
2023-02-17T07:04:17.708Z,2.72
2023-02-17T07:06:44.519Z,2.65
2023-02-17T07:09:14.132Z,3.00
2023-02-17T07:11:42.049Z,3.15
2023-02-17T07:14:08.847Z,2.20
2023-02-17T07:16:35.651Z,2.85
2023-02-17T07:19:02.504Z,2.80
2023-02-17T07:21:29.268Z,3.05
2023-02-17T07:23:56.014Z,2.55
2023-02-17T07:26:22.813Z,2.38
2023-02-17T07:28:49.604Z,2.40
2023-02-17T07:31:17.735Z,2.53
2023-02-17T07:33:45.649Z,2.30
2023-02-17T07:36:15.709Z,2.58
2023-02-17T07:38:42.911Z,2.50
2023-02-17T07:41:10.884Z,3.17
2023-02-17T07:43:37.757Z,3.25
2023-02-17T07:46:05.726Z,2.80
2023-02-17T07:48:33.146Z,2.50
2023-02-17T07:51:15.143Z,2.72
2023-02-17T07:53:42.124Z,2.53
2023-02-17T07:56:12.020Z,2.30
2023-02-17T07:58:40.086Z,3.30
2023-02-17T08:01:12.288Z,2.60
2023-02-17T08:03:39.511Z,2.25
2023-02-17T08:06:15.298Z,2.35
2023-02-17T08:09:00.663Z,2.30
2023-02-17T08:11:47.201Z,2.50
2023-02-17T08:14:15.969Z,2.30
2023-02-17T08:16:42.921Z,2.63
2023-02-17T08:19:09.898Z,3.15
2023-02-17T08:21:36.782Z,2.45
2023-02-17T08:24:03.787Z,3.00
2023-02-17T08:26:30.843Z,2.03
2023-02-17T08:28:57.812Z,2.30
2023-02-17T08:31:26.931Z,2.28
2023-02-17T08:33:54.210Z,2.25
2023-02-17T08:36:24.882Z,2.60
2023-02-17T08:38:52.634Z,2.13
2023-02-17T08:41:29.918Z,2.38
2023-02-17T08:43:57.956Z,2.53
2023-02-17T08:46:25.238Z,2.15
2023-02-17T08:48:52.295Z,2.35
2023-02-17T08:51:23.807Z,2.17
2023-02-17T08:53:51.082Z,2.28
2023-02-17T08:56:17.850Z,2.08
2023-02-17T08:58:44.666Z,1.80
2023-02-17T09:01:11.506Z,2.17
2023-02-17T09:03:38.920Z,2.22
2023-02-17T09:06:06.518Z,1.80
2023-02-17T09:08:33.988Z,2.90
2023-02-17T09:11:01.105Z,2.40
2023-02-17T09:13:27.908Z,2.10
2023-02-17T09:15:54.814Z,2.17
2023-02-17T09:18:22.274Z,1.55
2023-02-17T09:20:49.277Z,1.65
2023-02-17T09:23:16.356Z,1.42
2023-02-17T09:25:43.299Z,1.80
2023-02-17T09:28:10.989Z,1.75
2023-02-17T09:30:37.883Z,1.70
2023-02-17T09:33:05.543Z,2.00
2023-02-17T09:35:33.079Z,1.67
2023-02-17T09:38:00.892Z,1.70
2023-02-17T09:40:40.086Z,1.83
2023-02-17T09:43:11.410Z,2.13
2023-02-17T09:45:38.488Z,1.88
2023-02-17T09:48:10.663Z,2.38
2023-02-17T09:50:45.837Z,1.60
2023-02-17T09:53:25.121Z,1.60
2023-02-17T09:55:53.605Z,1.67
2023-02-17T09:58:32.935Z,1.30
2023-02-17T10:01:02.716Z,1.48
2023-02-17T10:03:43.628Z,1.60
2023-02-17T10:06:16.548Z,1.25
2023-02-17T10:08:51.769Z,1.58
2023-02-17T10:11:23.902Z,1.55
2023-02-17T10:13:51.476Z,1.57
2023-02-17T10:16:22.366Z,1.40
2023-02-17T10:18:58.368Z,1.65
2023-02-17T10:21:33.302Z,1.40
2023-02-17T10:24:00.180Z,1.13
2023-02-17T10:26:51.375Z,2.05
2023-02-17T10:29:45.624Z,3.05
2023-02-17T10:32:21.327Z,2.55
2023-02-17T10:35:14.912Z,1.90
2023-02-17T10:37:50.062Z,1.77
2023-02-17T10:40:28.017Z,2.10
2023-02-17T10:43:00.415Z,2.00
2023-02-17T10:45:42.498Z,1.88
2023-02-17T10:48:10.125Z,1.65
2023-02-17T10:50:37.891Z,2.65
2023-02-17T10:53:20.223Z,3.33
2023-02-17T10:55:49.842Z,2.47
2023-02-17T10:58:22.914Z,1.67
2023-02-17T11:00:53.220Z,1.60
2023-02-17T11:03:21.186Z,1.58
2023-02-17T11:06:05.166Z,1.50
2023-02-17T11:08:49.405Z,2.13
2023-02-17T11:11:30.793Z,2.35
2023-02-17T11:14:09.284Z,2.05
2023-02-17T11:16:42.062Z,2.10
2023-02-17T11:19:22.934Z,1.70
2023-02-17T11:21:52.202Z,1.90
2023-02-17T11:24:19.200Z,1.83
2023-02-17T11:26:56.352Z,2.50
2023-02-17T11:29:23.577Z,0.85
2023-02-17T11:32:04.419Z,1.38
2023-02-17T11:34:33.424Z,2.00
2023-02-17T11:37:06.788Z,0.90
2023-02-17T11:39:44.419Z,0.47
2023-02-17T11:42:17.477Z,0.77
2023-02-17T11:44:44.312Z,0.50
2023-02-17T11:47:41.899Z,0.60
2023-02-17T11:50:38.967Z,0.20
2023-02-17T11:53:36.823Z,0.68
2023-02-17T11:56:11.264Z,0.50
2023-02-17T11:58:59.810Z,0.55
2023-02-17T12:01:55.762Z,1.08
2023-02-17T12:04:34.066Z,1.58
2023-02-17T12:07:15.587Z,1.10
2023-02-17T12:10:01.937Z,0.80
2023-02-17T12:12:40.984Z,0.70
2023-02-17T12:15:59.090Z,0.50
2023-02-17T12:18:45.367Z,2.25
2023-02-17T12:21:27.702Z,1.27
2023-02-17T12:24:18.310Z,0.70
2023-02-17T12:26:51.321Z,0.80
2023-02-17T12:32:35.575Z,0.30
2023-02-17T12:35:24.758Z,0.43
2023-02-17T12:38:03.842Z,0.60
2023-02-17T12:40:45.949Z,1.00
2023-02-17T12:43:28.731Z,0.80
2023-02-17T12:45:57.454Z,0.65
2023-02-17T12:48:37.158Z,0.52
2023-02-17T12:51:12.048Z,0.80
2023-02-17T12:53:57.610Z,0.52
2023-02-17T12:56:31.403Z,0.50
2023-02-17T12:59:12.404Z,0.70
2023-02-17T13:01:42.482Z,0.57
2023-02-17T13:04:11.457Z,0.50
2023-02-17T13:06:39.984Z,0.75
2023-02-17T13:09:28.848Z,1.10
2023-02-17T13:12:08.588Z,0.60
2023-02-17T13:14:44.427Z,0.50
2023-02-17T13:17:29.035Z,0.52
2023-02-17T13:20:21.291Z,0.90
2023-02-17T13:22:48.189Z,1.17
2023-02-17T13:25:28.999Z,0.57
2023-02-17T13:27:56.012Z,0.90
2023-02-17T13:30:22.796Z,0.75
2023-02-17T13:33:05.050Z,0.60
2023-02-17T13:35:36.875Z,0.80
2023-02-17T13:38:03.944Z,0.88
2023-02-17T13:40:30.752Z,1.48
2023-02-17T13:42:57.882Z,0.60
2023-02-17T13:45:27.612Z,0.80
2023-02-17T13:47:59.086Z,0.88
2023-02-17T13:50:28.537Z,0.80
2023-02-17T13:52:55.851Z,0.88
2023-02-17T13:55:24.460Z,1.45
2023-02-17T13:57:56.081Z,1.00
2023-02-17T14:00:30.983Z,0.85
2023-02-17T14:03:24.998Z,0.88
2023-02-17T14:05:54.535Z,0.95
2023-02-17T14:08:29.305Z,1.38
2023-02-17T14:10:56.566Z,0.90
2023-02-17T14:13:23.893Z,0.80
2023-02-17T14:16:00.513Z,0.90
2023-02-17T14:18:35.207Z,0.80
2023-02-17T14:21:04.653Z,0.52
2023-02-17T14:23:52.368Z,0.85
2023-02-17T14:26:31.204Z,1.08
2023-02-17T14:29:03.839Z,1.30
2023-02-17T14:31:32.585Z,1.00
2023-02-17T14:34:03.925Z,1.10
2023-02-17T14:36:35.981Z,0.80
2023-02-17T14:39:05.265Z,0.55
2023-02-17T14:41:32.255Z,1.20
2023-02-17T14:44:00.809Z,1.20
2023-02-17T14:46:28.175Z,1.00
2023-02-17T14:48:55.154Z,0.80
2023-02-17T14:51:23.969Z,0.95
2023-02-17T14:53:51.220Z,1.33
2023-02-17T14:56:28.462Z,1.20
2023-02-17T14:58:55.609Z,1.20
2023-02-17T15:01:23.841Z,1.38
2023-02-17T15:03:50.952Z,1.17
2023-02-17T15:06:17.724Z,1.38
2023-02-17T15:08:46.041Z,0.90
2023-02-17T15:11:37.679Z,0.85
2023-02-17T15:14:05.095Z,0.95
2023-02-17T15:16:32.001Z,1.00
2023-02-17T15:18:58.862Z,0.77
2023-02-17T15:21:33.535Z,0.68
2023-02-17T15:24:01.278Z,0.82
2023-02-17T15:26:30.600Z,0.60
2023-02-17T15:28:58.457Z,0.85
2023-02-17T15:31:25.710Z,1.00
2023-02-17T15:33:57.619Z,0.80
2023-02-17T15:36:25.486Z,0.82
2023-02-17T15:38:52.359Z,0.85
2023-02-17T15:41:24.752Z,1.20
2023-02-17T15:43:51.741Z,1.85
2023-02-17T15:46:20.681Z,1.80
2023-02-17T15:48:52.354Z,2.00
2023-02-17T15:51:19.716Z,1.55
2023-02-17T15:53:47.499Z,1.50
2023-02-17T15:56:23.369Z,1.70
2023-02-17T15:58:50.560Z,2.10
2023-02-17T16:01:24.662Z,1.90
2023-02-17T16:03:51.404Z,1.75
2023-02-17T16:06:18.213Z,1.75
2023-02-17T16:08:45.097Z,1.65
2023-02-17T16:11:16.426Z,1.60
2023-02-17T16:13:45.269Z,1.60
2023-02-17T16:16:20.905Z,1.27
2023-02-17T16:18:49.826Z,1.50
2023-02-17T16:21:17.176Z,1.45
2023-02-17T16:23:44.621Z,1.58
2023-02-17T16:26:34.400Z,2.13
2023-02-17T16:29:04.254Z,1.60
2023-02-17T16:31:32.669Z,1.52
2023-02-17T16:34:00.545Z,1.92
2023-02-17T16:36:30.775Z,1.63
2023-02-17T16:38:57.528Z,1.77
2023-02-17T16:41:24.700Z,1.83
2023-02-17T16:43:51.595Z,1.50
2023-02-17T16:46:32.040Z,1.90
2023-02-17T16:49:00.781Z,2.20
2023-02-17T16:51:27.842Z,1.95
2023-02-17T16:53:54.713Z,1.98
2023-02-17T16:56:27.555Z,1.65
2023-02-17T16:58:54.301Z,1.63
2023-02-17T17:01:22.922Z,1.55
2023-02-17T17:03:50.825Z,1.65
2023-02-17T17:06:26.059Z,1.73
2023-02-17T17:08:53.433Z,2.03
2023-02-17T17:11:22.218Z,2.42
2023-02-17T17:13:49.399Z,1.98
2023-02-17T17:16:21.576Z,2.17
2023-02-17T17:18:48.392Z,1.80
2023-02-17T17:21:16.580Z,1.73
2023-02-17T17:23:43.409Z,1.80
2023-02-17T17:26:36.641Z,2.38
2023-02-17T17:29:03.555Z,2.17
2023-02-17T17:31:30.553Z,1.85
2023-02-17T17:33:57.365Z,1.58
2023-02-17T17:36:34.120Z,2.13
2023-02-17T17:39:02.046Z,2.58
2023-02-17T17:41:29.613Z,1.70
2023-02-17T17:43:57.520Z,1.70
2023-02-17T17:46:26.534Z,2.30
2023-02-17T17:48:53.420Z,1.95
2023-02-17T17:51:21.414Z,1.85
2023-02-17T17:53:48.470Z,1.88
2023-02-17T17:56:30.301Z,1.60
2023-02-17T17:58:58.826Z,1.95
2023-02-17T18:01:25.809Z,2.30
2023-02-17T18:03:52.938Z,2.13
2023-02-17T18:06:43.927Z,1.77
2023-02-17T18:09:25.775Z,3.10
2023-02-17T18:11:57.948Z,1.88
2023-02-17T18:14:24.755Z,1.70
2023-02-17T18:16:51.729Z,1.90
2023-02-17T18:19:18.776Z,2.05
2023-02-17T18:21:46.423Z,1.70
2023-02-17T18:24:13.402Z,1.65
2023-02-17T18:26:40.189Z,1.83
2023-02-17T18:29:07.185Z,1.80
2023-02-17T18:31:34.083Z,1.83
2023-02-17T18:34:01.044Z,2.00
2023-02-17T18:36:28.013Z,1.90
2023-02-17T18:38:55.015Z,1.88
2023-02-17T18:41:40.325Z,1.80
2023-02-17T18:44:07.205Z,1.80
2023-02-17T18:46:34.105Z,2.10
2023-02-17T18:49:01.253Z,2.33
2023-02-17T18:51:28.050Z,2.30
2023-02-17T18:53:56.518Z,1.88
2023-02-17T18:56:25.861Z,1.98
2023-02-17T18:58:55.340Z,2.13
2023-02-17T19:01:30.155Z,3.80
2023-02-17T19:03:57.790Z,2.97
2023-02-17T19:06:26.803Z,2.90
2023-02-17T19:08:53.657Z,2.72
2023-02-17T19:11:21.052Z,2.17
2023-02-17T19:13:48.102Z,1.95
2023-02-17T19:16:24.494Z,2.10
2023-02-17T19:18:51.793Z,2.40
2023-02-17T19:21:18.849Z,2.17
2023-02-17T19:23:45.885Z,1.77
2023-02-17T19:26:13.805Z,1.60
2023-02-17T19:28:40.765Z,1.80
2023-02-17T19:31:09.316Z,1.67
2023-02-17T19:33:36.322Z,1.90
2023-02-17T19:36:08.567Z,2.13
2023-02-17T19:38:35.651Z,2.00
2023-02-17T19:41:06.492Z,1.88
2023-02-17T19:43:33.487Z,2.30
2023-02-17T19:46:00.427Z,2.00
2023-02-17T19:48:27.274Z,2.00
2023-02-17T19:51:05.392Z,1.98
2023-02-17T19:53:33.285Z,1.98
2023-02-17T19:56:11.566Z,1.70
2023-02-17T19:58:38.892Z,1.80
2023-02-17T20:01:10.883Z,1.70
2023-02-17T20:03:37.958Z,1.17
2023-02-17T20:06:07.327Z,1.20
2023-02-17T20:08:36.347Z,1.38
2023-02-17T20:11:08.009Z,1.10
2023-02-17T20:13:45.316Z,1.35
2023-02-17T20:16:13.531Z,1.10
2023-02-17T20:18:42.712Z,1.15
2023-02-17T20:21:10.909Z,1.10
2023-02-17T20:23:37.671Z,1.20
2023-02-17T20:26:10.251Z,1.10
2023-02-17T20:28:37.489Z,1.02
2023-02-17T20:31:05.157Z,0.90
2023-02-17T20:33:32.322Z,1.10
2023-02-17T20:35:59.194Z,1.00
2023-02-17T20:38:25.926Z,1.15
2023-02-17T20:40:52.949Z,1.00
2023-02-17T20:43:20.767Z,1.17
2023-02-17T20:45:49.056Z,1.10
2023-02-17T20:48:16.418Z,0.80
2023-02-17T20:50:43.893Z,0.70
2023-02-17T20:53:10.895Z,0.80
2023-02-17T20:55:37.764Z,0.77
2023-02-17T20:58:04.869Z,0.65
2023-02-17T21:00:31.805Z,0.68
2023-02-17T21:02:58.722Z,0.73
2023-02-17T21:05:26.466Z,0.65
2023-02-17T21:07:53.279Z,0.77
2023-02-17T21:10:26.619Z,0.60
2023-02-17T21:12:53.520Z,0.57
2023-02-17T21:15:20.514Z,0.60
2023-02-17T21:17:47.627Z,0.50
2023-02-17T21:20:16.826Z,0.60
2023-02-17T21:22:44.128Z,0.68
2023-02-17T21:25:11.227Z,0.70
2023-02-17T21:27:38.923Z,0.50
2023-02-17T21:30:07.613Z,0.40
2023-02-17T21:32:34.910Z,0.50
2023-02-17T21:35:01.921Z,0.40
2023-02-17T21:37:28.798Z,0.20
2023-02-17T21:39:55.665Z,0.22
2023-02-17T21:42:45.466Z,0.40
2023-02-17T21:45:12.724Z,0.40
2023-02-17T21:47:40.593Z,0.40
2023-02-17T21:50:07.956Z,0.20
2023-02-17T21:52:34.822Z,0.30
2023-02-17T21:55:01.759Z,0.55
2023-02-17T21:57:28.641Z,0.43
2023-02-17T21:59:55.398Z,0.75
2023-02-17T22:02:22.249Z,0.68
2023-02-17T22:04:49.049Z,0.50
2023-02-17T22:07:15.874Z,0.60
2023-02-17T22:09:42.618Z,0.63
2023-02-17T22:12:09.429Z,0.60
2023-02-17T22:14:36.278Z,0.70
2023-02-17T22:17:03.273Z,0.50
2023-02-17T22:19:31.543Z,0.50
2023-02-17T22:21:58.604Z,0.50
2023-02-17T22:24:27.350Z,0.30
2023-02-17T22:26:54.642Z,0.57
2023-02-17T22:29:21.526Z,0.40
2023-02-17T22:31:50.587Z,0.63
2023-02-17T22:34:17.660Z,0.70
2023-02-17T22:36:45.825Z,0.50
2023-02-17T22:39:12.672Z,0.60
2023-02-17T22:41:40.934Z,0.60
2023-02-17T22:44:08.274Z,0.70
2023-02-17T22:46:35.272Z,0.50
2023-02-17T22:49:02.092Z,0.57
2023-02-17T22:51:31.156Z,0.40
2023-02-17T22:53:58.212Z,0.50
2023-02-17T22:56:24.990Z,0.50
2023-02-17T22:58:55.944Z,0.50
2023-02-17T23:01:23.067Z,0.60
2023-02-17T23:03:54.536Z,0.40
2023-02-17T23:06:36.439Z,0.80
2023-02-17T23:09:04.341Z,0.63
2023-02-17T23:11:54.122Z,0.63
2023-02-17T23:14:32.335Z,0.80
2023-02-17T23:17:07.354Z,0.47
2023-02-17T23:19:34.235Z,0.80
2023-02-17T23:22:04.391Z,1.00
2023-02-17T23:24:31.154Z,1.40
2023-02-17T23:27:00.386Z,0.90
2023-02-17T23:29:30.879Z,0.70
2023-02-17T23:31:58.193Z,0.40
2023-02-17T23:34:25.119Z,1.17
2023-02-17T23:36:51.957Z,0.30
2023-02-17T23:39:18.706Z,0.50
2023-02-17T23:41:45.765Z,0.40
2023-02-17T23:44:13.722Z,0.60
2023-02-17T23:46:41.668Z,0.70
2023-02-17T23:49:08.846Z,0.50
2023-02-17T23:51:35.601Z,0.57
2023-02-17T23:54:02.332Z,0.60
2023-02-17T23:56:31.593Z,0.70
2023-02-17T23:58:58.611Z,0.80
